createdAt,value
2019-05-18T00:00:05.485Z,15.30
2019-05-18T00:02:31.817Z,15.30
2019-05-18T00:04:58.044Z,15.30
2019-05-18T00:07:24.374Z,15.30
2019-05-18T00:09:50.717Z,15.30
2019-05-18T00:12:17.136Z,15.20
2019-05-18T00:14:43.471Z,15.20
2019-05-18T00:17:24.446Z,15.10
2019-05-18T00:19:37.977Z,15.10
2019-05-18T00:22:04.301Z,15.00
2019-05-18T00:24:30.530Z,15.00
2019-05-18T00:26:56.962Z,14.90
2019-05-18T00:29:23.233Z,14.90
2019-05-18T00:31:49.881Z,14.80
2019-05-18T00:34:16.260Z,14.80
2019-05-18T00:36:42.491Z,14.70
2019-05-18T00:39:08.786Z,14.70
2019-05-18T00:41:35.149Z,14.60
2019-05-18T00:44:01.582Z,14.60
2019-05-18T00:46:28.014Z,14.50
2019-05-18T00:48:54.314Z,14.50
2019-05-18T00:51:23.288Z,14.40
2019-05-18T00:53:49.052Z,14.40
2019-05-18T00:56:17.298Z,14.40
2019-05-18T00:58:43.660Z,14.30
2019-05-18T01:01:10.423Z,14.30
2019-05-18T01:03:36.840Z,14.20
2019-05-18T01:06:03.165Z,14.20
2019-05-18T01:08:29.596Z,14.10
2019-05-18T01:10:56.030Z,14.10
2019-05-18T01:13:22.684Z,14.00
2019-05-18T01:15:49.023Z,14.00
2019-05-18T01:18:15.330Z,13.90
2019-05-18T01:20:41.984Z,13.90
2019-05-18T01:23:08.406Z,13.90
2019-05-18T01:25:34.834Z,13.80
2019-05-18T01:28:01.167Z,13.80
2019-05-18T01:30:27.496Z,13.80
2019-05-18T01:32:53.733Z,13.70
2019-05-18T01:35:20.169Z,13.70
2019-05-18T01:37:46.485Z,13.60
2019-05-18T01:40:13.144Z,13.60
2019-05-18T01:42:39.467Z,13.50
2019-05-18T01:45:16.492Z,13.50
2019-05-18T01:47:35.001Z,13.40
2019-05-18T01:50:02.640Z,13.40
2019-05-18T01:52:28.971Z,13.30
2019-05-18T01:54:55.300Z,13.30
2019-05-18T01:57:21.748Z,13.20
2019-05-18T02:00:08.734Z,13.20
2019-05-18T02:02:35.113Z,13.10
2019-05-18T02:05:02.413Z,13.10
2019-05-18T02:07:28.801Z,13.00
2019-05-18T02:09:55.260Z,13.00
2019-05-18T02:12:21.663Z,12.90
2019-05-18T02:14:47.994Z,12.90
2019-05-18T02:17:14.326Z,12.90
2019-05-18T02:19:40.654Z,12.80
2019-05-18T02:22:08.130Z,12.80
2019-05-18T02:24:34.407Z,12.70
2019-05-18T02:27:00.695Z,12.70
2019-05-18T02:29:27.113Z,12.60
2019-05-18T02:31:53.440Z,12.60
2019-05-18T02:34:19.740Z,12.60
2019-05-18T02:36:46.093Z,12.60
2019-05-18T02:39:12.528Z,12.50
2019-05-18T02:41:38.857Z,12.50
2019-05-18T02:44:05.515Z,12.40
2019-05-18T02:46:31.825Z,12.40
2019-05-18T02:48:58.155Z,12.30
2019-05-18T02:51:24.487Z,12.30
2019-05-18T02:53:50.924Z,12.30
2019-05-18T02:56:17.252Z,12.20
2019-05-18T02:58:43.603Z,12.20
2019-05-18T03:01:09.914Z,12.10
2019-05-18T03:03:36.245Z,12.10
2019-05-18T03:06:02.714Z,12.10
2019-05-18T03:08:29.108Z,12.10
2019-05-18T03:10:55.448Z,12.00
2019-05-18T03:13:22.085Z,12.00
2019-05-18T03:15:48.408Z,12.00
2019-05-18T03:18:14.704Z,11.90
2019-05-18T03:20:41.425Z,11.90
2019-05-18T03:23:07.804Z,11.90
2019-05-18T03:25:34.136Z,11.90
2019-05-18T03:28:00.337Z,11.90
2019-05-18T03:30:26.693Z,11.90
2019-05-18T03:32:53.042Z,11.90
2019-05-18T03:35:19.359Z,11.80
2019-05-18T03:37:45.792Z,11.90
2019-05-18T03:40:12.274Z,11.90
2019-05-18T03:42:38.658Z,11.90
2019-05-18T03:45:06.427Z,11.90
2019-05-18T03:47:32.923Z,11.90
2019-05-18T03:49:59.280Z,11.90
2019-05-18T03:52:25.612Z,11.90
2019-05-18T03:54:52.047Z,11.90
2019-05-18T03:57:18.375Z,11.90
2019-05-18T03:59:44.708Z,11.90
2019-05-18T04:02:11.037Z,11.90
2019-05-18T04:04:37.367Z,11.90
2019-05-18T04:07:03.812Z,11.90
2019-05-18T04:09:30.319Z,11.90
2019-05-18T04:11:56.665Z,11.90
2019-05-18T04:14:22.998Z,11.90
2019-05-18T04:16:49.329Z,11.90
2019-05-18T04:19:15.655Z,11.90
2019-05-18T04:21:41.991Z,12.00
2019-05-18T04:24:08.301Z,12.00
2019-05-18T04:26:34.748Z,12.00
2019-05-18T04:29:01.083Z,12.10
2019-05-18T04:31:31.933Z,12.10
2019-05-18T04:33:55.891Z,12.10
2019-05-18T04:36:22.527Z,12.10
2019-05-18T04:38:48.860Z,12.10
2019-05-18T04:41:15.194Z,12.10
2019-05-18T04:43:41.522Z,12.10
2019-05-18T04:46:07.853Z,12.20
2019-05-18T04:48:34.184Z,12.20
2019-05-18T04:51:00.514Z,12.20
2019-05-18T04:53:26.852Z,12.20
2019-05-18T04:55:53.119Z,12.30
2019-05-18T04:58:19.504Z,12.30
2019-05-18T05:00:45.835Z,12.30
2019-05-18T05:03:12.154Z,12.40
2019-05-18T05:05:38.492Z,12.40
2019-05-18T05:08:04.824Z,12.50
2019-05-18T05:10:31.153Z,12.60
2019-05-18T05:12:58.890Z,12.60
2019-05-18T05:15:25.254Z,12.70
2019-05-18T05:17:51.687Z,12.70
2019-05-18T05:20:20.032Z,12.80
2019-05-18T05:22:47.005Z,12.90
2019-05-18T05:25:13.539Z,12.90
2019-05-18T05:27:39.837Z,13.00
2019-05-18T05:30:06.816Z,13.00
2019-05-18T05:32:33.246Z,13.10
2019-05-18T05:34:59.580Z,13.20
2019-05-18T05:37:25.908Z,13.20
2019-05-18T05:39:52.341Z,13.30
2019-05-18T05:42:18.656Z,13.50
2019-05-18T05:44:45.000Z,13.70
2019-05-18T05:47:11.342Z,13.90
2019-05-18T05:49:37.661Z,14.10
2019-05-18T05:52:04.138Z,14.30
2019-05-18T05:54:30.404Z,14.50
2019-05-18T05:56:56.758Z,14.60
2019-05-18T05:59:23.495Z,14.80
2019-05-18T06:01:49.722Z,15.00
2019-05-18T06:04:16.261Z,15.30
2019-05-18T06:09:09.637Z,15.80
2019-05-18T06:14:04.242Z,16.50
2019-05-18T06:16:30.573Z,16.70
2019-05-18T06:18:56.904Z,16.90
2019-05-18T06:21:23.235Z,17.10
2019-05-18T06:23:49.564Z,17.20
2019-05-18T06:26:16.008Z,17.20
2019-05-18T06:28:42.433Z,17.10
2019-05-18T06:31:09.694Z,17.10
2019-05-18T06:33:36.011Z,17.00
2019-05-18T06:36:02.443Z,16.90
2019-05-18T06:38:28.776Z,16.90
2019-05-18T06:40:55.105Z,16.80
2019-05-18T06:43:21.434Z,16.70
2019-05-18T06:45:47.663Z,16.60
2019-05-18T06:48:13.992Z,16.60
2019-05-18T06:50:40.741Z,16.50
2019-05-18T06:53:07.174Z,16.50
2019-05-18T06:55:34.373Z,16.50
2019-05-18T06:58:02.182Z,16.40
2019-05-18T07:00:28.617Z,16.40
2019-05-18T07:02:54.946Z,16.40
2019-05-18T07:05:21.692Z,16.40
2019-05-18T07:07:48.017Z,16.40
2019-05-18T07:10:14.507Z,16.50
2019-05-18T07:12:40.884Z,16.50
2019-05-18T07:15:07.516Z,16.60
2019-05-18T07:17:34.787Z,16.70
2019-05-18T07:20:01.505Z,16.70
2019-05-18T07:22:27.839Z,16.80
2019-05-18T07:24:55.292Z,16.90
2019-05-18T07:27:22.037Z,16.90
2019-05-18T07:29:48.474Z,17.00
2019-05-18T07:32:15.321Z,17.10
2019-05-18T07:34:41.642Z,17.10
2019-05-18T07:37:07.972Z,17.20
2019-05-18T07:39:36.157Z,17.20
2019-05-18T07:42:02.944Z,17.30
2019-05-18T07:44:29.319Z,17.30
2019-05-18T07:46:55.854Z,17.40
2019-05-18T07:49:22.190Z,17.50
2019-05-18T07:51:48.515Z,17.50
2019-05-18T07:54:14.951Z,17.60
2019-05-18T07:56:41.385Z,17.70
2019-05-18T07:59:07.815Z,17.80
2019-05-18T08:01:34.247Z,17.90
2019-05-18T08:04:00.582Z,18.00
2019-05-18T08:06:27.010Z,18.10
2019-05-18T08:08:53.445Z,18.20
2019-05-18T08:11:19.772Z,18.30
2019-05-18T08:13:46.402Z,18.50
2019-05-18T08:16:12.747Z,18.60
2019-05-18T08:18:39.070Z,18.80
2019-05-18T08:21:05.401Z,19.00
2019-05-18T08:23:32.141Z,19.30
2019-05-18T08:25:58.470Z,19.50
2019-05-18T08:28:25.006Z,19.70
2019-05-18T08:30:51.652Z,19.90
2019-05-18T08:33:17.979Z,20.20
2019-05-18T08:35:44.304Z,20.40
2019-05-18T08:38:10.635Z,20.50
2019-05-18T08:40:36.973Z,20.70
2019-05-18T08:43:03.449Z,20.90
2019-05-18T08:45:29.872Z,21.00
2019-05-18T08:47:56.306Z,21.20
2019-05-18T08:50:22.635Z,21.30
2019-05-18T08:52:48.964Z,21.50
2019-05-18T08:55:15.499Z,21.70
2019-05-18T08:57:42.445Z,21.80
2019-05-18T09:00:09.773Z,22.00
2019-05-18T09:02:36.130Z,22.10
2019-05-18T09:05:04.993Z,22.20
2019-05-18T09:07:31.968Z,22.30
2019-05-18T09:09:58.502Z,22.30
2019-05-18T09:12:24.937Z,22.40
2019-05-18T09:14:51.413Z,22.50
2019-05-18T09:17:17.797Z,22.50
2019-05-18T09:19:44.230Z,22.50
2019-05-18T09:22:22.541Z,22.60
2019-05-18T09:24:38.632Z,22.70
2019-05-18T09:27:04.962Z,22.80
2019-05-18T09:29:31.395Z,22.80
2019-05-18T09:31:57.726Z,22.90
2019-05-18T09:34:24.161Z,23.00
2019-05-18T09:36:50.699Z,23.10
2019-05-18T09:39:17.127Z,23.20
2019-05-18T09:41:43.345Z,23.20
2019-05-18T09:44:09.789Z,23.20
2019-05-18T09:46:36.026Z,23.10
2019-05-18T09:49:02.451Z,23.10
2019-05-18T09:51:28.780Z,23.10
2019-05-18T09:53:55.149Z,23.10
2019-05-18T09:56:21.541Z,23.10
2019-05-18T09:58:47.875Z,23.10
2019-05-18T10:01:14.413Z,23.10
2019-05-18T10:03:42.638Z,23.20
2019-05-18T10:06:09.123Z,23.20
2019-05-18T10:08:35.381Z,23.30
2019-05-18T10:11:01.681Z,23.30
2019-05-18T10:13:27.997Z,23.40
2019-05-18T10:15:54.335Z,23.50
2019-05-18T10:18:21.898Z,23.60
2019-05-18T10:20:48.432Z,23.70
2019-05-18T10:23:14.656Z,23.70
2019-05-18T10:25:40.987Z,23.80
2019-05-18T10:28:07.318Z,23.80
2019-05-18T10:30:33.648Z,23.90
2019-05-18T10:32:59.979Z,23.90
2019-05-18T10:35:26.311Z,24.00
2019-05-18T10:37:52.538Z,24.00
2019-05-18T10:40:19.893Z,24.10
2019-05-18T10:42:46.124Z,24.10
2019-05-18T10:45:13.063Z,24.20
2019-05-18T10:47:39.409Z,24.20
2019-05-18T10:50:06.344Z,24.30
2019-05-18T10:52:32.617Z,24.40
2019-05-18T10:54:58.999Z,24.50
2019-05-18T10:57:25.332Z,24.60
2019-05-18T10:59:51.661Z,24.70
2019-05-18T11:02:17.992Z,24.70
2019-05-18T11:04:44.323Z,24.80
2019-05-18T11:07:10.733Z,24.90
2019-05-18T11:09:37.016Z,25.00
2019-05-18T11:12:03.417Z,25.00
2019-05-18T11:14:29.745Z,25.10
2019-05-18T11:16:56.077Z,25.20
2019-05-18T11:19:22.509Z,25.20
2019-05-18T11:21:48.839Z,25.30
2019-05-18T11:24:15.171Z,25.30
2019-05-18T11:26:41.417Z,25.30
2019-05-18T11:29:07.729Z,25.40
2019-05-18T11:31:35.699Z,25.40
2019-05-18T11:34:02.132Z,25.50
2019-05-18T11:36:30.743Z,25.50
2019-05-18T11:38:57.191Z,25.50
2019-05-18T11:41:23.787Z,25.50
2019-05-18T11:43:50.740Z,25.60
2019-05-18T11:46:17.064Z,25.60
2019-05-18T11:48:43.398Z,25.50
2019-05-18T11:51:09.724Z,25.50
2019-05-18T11:53:36.056Z,25.40
2019-05-18T11:56:02.385Z,25.40
2019-05-18T11:58:28.715Z,25.30
2019-05-18T12:00:55.148Z,25.20
2019-05-18T12:03:21.580Z,25.00
2019-05-18T12:05:48.232Z,24.90
2019-05-18T12:08:14.650Z,24.80
2019-05-18T12:10:40.942Z,24.80
2019-05-18T12:13:07.315Z,24.80
2019-05-18T12:15:33.651Z,24.90
2019-05-18T12:17:59.974Z,24.90
2019-05-18T12:20:26.408Z,25.00
2019-05-18T12:22:52.844Z,25.10
2019-05-18T12:25:19.356Z,25.20
2019-05-18T12:27:45.912Z,25.20
2019-05-18T12:30:13.061Z,25.30
2019-05-18T12:32:39.388Z,25.40
2019-05-18T12:35:07.459Z,25.40
2019-05-18T12:37:33.897Z,25.40
2019-05-18T12:40:00.317Z,25.50
2019-05-18T12:42:26.655Z,25.50
2019-05-18T12:44:52.985Z,25.50
2019-05-18T12:47:19.215Z,25.50
2019-05-18T12:49:45.647Z,25.50
2019-05-18T12:52:13.644Z,25.50
2019-05-18T12:54:46.363Z,25.40
2019-05-18T12:57:08.222Z,25.40
2019-05-18T12:59:34.553Z,25.30
2019-05-18T13:02:01.093Z,25.20
2019-05-18T13:04:47.276Z,25.30
2019-05-18T13:07:13.721Z,25.30
2019-05-18T13:09:40.150Z,25.40
2019-05-18T13:12:06.446Z,25.40
2019-05-18T13:14:32.809Z,25.50
2019-05-18T13:16:59.146Z,25.60
2019-05-18T13:19:25.471Z,25.70
2019-05-18T13:21:51.903Z,25.80
2019-05-18T13:24:19.759Z,25.80
2019-05-18T13:26:46.105Z,25.80
2019-05-18T13:29:14.107Z,25.80
2019-05-18T13:31:40.413Z,25.80
2019-05-18T13:34:06.786Z,25.80
2019-05-18T13:36:33.163Z,25.80
2019-05-18T13:38:59.498Z,25.80
2019-05-18T13:41:25.825Z,25.80
2019-05-18T13:43:52.153Z,25.90
2019-05-18T13:46:18.485Z,26.00
2019-05-18T13:48:44.724Z,26.10
2019-05-18T13:51:11.053Z,26.20
2019-05-18T13:53:37.478Z,26.40
2019-05-18T13:56:03.805Z,26.50
2019-05-18T13:58:30.158Z,26.70
2019-05-18T14:00:56.483Z,26.80
2019-05-18T14:03:22.938Z,26.80
2019-05-18T14:05:49.314Z,26.90
2019-05-18T14:08:16.160Z,26.90
2019-05-18T14:10:42.608Z,27.00
2019-05-18T14:13:09.043Z,27.00
2019-05-18T14:15:35.371Z,27.00
2019-05-18T14:18:01.807Z,27.00
2019-05-18T14:20:28.133Z,27.00
2019-05-18T14:22:54.408Z,27.10
2019-05-18T14:25:20.799Z,27.10
2019-05-18T14:27:47.639Z,27.20
2019-05-18T14:30:17.862Z,27.30
2019-05-18T14:32:44.398Z,27.40
2019-05-18T14:35:11.338Z,27.50
2019-05-18T14:37:37.669Z,27.60
2019-05-18T14:40:05.947Z,27.70
2019-05-18T14:42:32.312Z,27.80
2019-05-18T14:44:58.626Z,28.00
2019-05-18T14:47:27.384Z,28.20
2019-05-18T14:49:53.233Z,28.40
2019-05-18T14:52:19.563Z,28.50
2019-05-18T14:54:45.899Z,28.60
2019-05-18T14:57:12.212Z,28.80
2019-05-18T14:59:38.555Z,28.90
2019-05-18T15:02:04.992Z,29.00
2019-05-18T15:04:31.317Z,29.10
2019-05-18T15:06:57.651Z,29.20
2019-05-18T15:09:24.022Z,29.30
2019-05-18T15:11:50.617Z,29.40
2019-05-18T15:14:17.048Z,29.40
2019-05-18T15:16:43.482Z,29.40
2019-05-18T15:19:09.766Z,29.40
2019-05-18T15:21:36.068Z,29.40
2019-05-18T15:24:02.484Z,29.50
2019-05-18T15:26:28.809Z,29.50
2019-05-18T15:28:55.136Z,29.50
2019-05-18T15:31:23.766Z,29.60
2019-05-18T15:33:51.428Z,29.60
2019-05-18T15:36:17.926Z,29.60
2019-05-18T15:38:44.555Z,29.60
2019-05-18T15:41:10.947Z,29.50
2019-05-18T15:43:37.249Z,29.50
2019-05-18T15:46:03.752Z,29.40
2019-05-18T15:48:30.201Z,29.30
2019-05-18T15:50:59.210Z,29.20
2019-05-18T15:53:24.710Z,29.20
2019-05-18T15:56:04.769Z,29.10
2019-05-18T15:58:20.860Z,29.10
2019-05-18T16:00:47.410Z,29.20
2019-05-18T16:03:13.898Z,29.10
2019-05-18T16:05:40.438Z,29.10
2019-05-18T16:08:07.154Z,29.00
2019-05-18T16:10:34.321Z,28.90
2019-05-18T16:13:00.860Z,28.70
2019-05-18T16:15:27.391Z,28.50
2019-05-18T16:17:53.727Z,28.40
2019-05-18T16:20:20.219Z,28.20
2019-05-18T16:22:46.692Z,28.10
2019-05-18T16:25:13.531Z,27.90
2019-05-18T16:27:42.149Z,27.70
2019-05-18T16:30:09.586Z,27.60
2019-05-18T16:32:36.004Z,27.50
2019-05-18T16:35:05.519Z,27.40
2019-05-18T16:37:31.839Z,27.40
2019-05-18T16:39:58.169Z,27.30
2019-05-18T16:42:24.603Z,27.20
2019-05-18T16:44:51.240Z,27.10
2019-05-18T16:47:17.573Z,27.10
2019-05-18T16:49:43.906Z,27.10
2019-05-18T16:52:10.231Z,27.00
2019-05-18T16:54:36.455Z,26.90
2019-05-18T16:57:02.892Z,26.90
2019-05-18T16:59:29.335Z,26.80
2019-05-18T17:01:55.654Z,26.80
2019-05-18T17:04:23.623Z,26.70
2019-05-18T17:06:50.156Z,26.60
2019-05-18T17:09:16.594Z,26.60
2019-05-18T17:11:43.025Z,26.60
2019-05-18T17:14:09.355Z,26.50
2019-05-18T17:16:35.733Z,26.50
2019-05-18T17:19:02.124Z,26.40
2019-05-18T17:21:28.653Z,26.40
2019-05-18T17:23:54.985Z,26.30
2019-05-18T17:26:21.429Z,26.20
2019-05-18T17:28:47.852Z,26.10
2019-05-18T17:31:14.284Z,26.10
2019-05-18T17:33:40.716Z,26.00
2019-05-18T17:36:07.045Z,25.90
2019-05-18T17:38:33.378Z,25.90
2019-05-18T17:40:59.811Z,25.80
2019-05-18T17:43:26.148Z,25.70
2019-05-18T17:45:52.582Z,25.70
2019-05-18T17:48:19.008Z,25.50
2019-05-18T17:50:45.335Z,25.50
2019-05-18T17:53:11.995Z,25.40
2019-05-18T17:55:38.407Z,25.40
2019-05-18T17:58:04.736Z,25.30
2019-05-18T18:00:31.077Z,25.30
2019-05-18T18:02:57.396Z,25.20
2019-05-18T18:05:23.830Z,25.20
2019-05-18T18:07:50.123Z,25.10
2019-05-18T18:10:17.006Z,25.10
2019-05-18T18:12:43.332Z,25.00
2019-05-18T18:15:10.485Z,25.00
2019-05-18T18:17:37.122Z,25.00
2019-05-18T18:20:06.887Z,24.90
2019-05-18T18:22:33.267Z,24.90
2019-05-18T18:24:59.489Z,24.80
2019-05-18T18:27:29.274Z,24.80
2019-05-18T18:29:54.306Z,24.70
2019-05-18T18:32:20.635Z,24.60
2019-05-18T18:34:47.576Z,24.60
2019-05-18T18:37:13.974Z,24.50
2019-05-18T18:39:41.447Z,24.50
2019-05-18T18:42:07.800Z,24.40
2019-05-18T18:44:35.069Z,24.30
2019-05-18T18:47:01.385Z,24.20
2019-05-18T18:49:27.922Z,24.20
2019-05-18T18:51:54.369Z,24.10
2019-05-18T18:54:20.679Z,24.00
2019-05-18T18:56:47.076Z,23.90
2019-05-18T18:59:13.443Z,23.80
2019-05-18T19:01:39.774Z,23.70
2019-05-18T19:04:06.103Z,23.60
2019-05-18T19:06:32.437Z,23.50
2019-05-18T19:08:58.901Z,23.40
2019-05-18T19:11:25.298Z,23.30
2019-05-18T19:13:51.530Z,23.20
2019-05-18T19:16:17.844Z,23.20
2019-05-18T19:18:44.187Z,23.10
2019-05-18T19:21:12.835Z,23.00
2019-05-18T19:23:39.274Z,22.90
2019-05-18T19:26:05.760Z,22.80
2019-05-18T19:28:32.001Z,22.70
2019-05-18T19:30:58.325Z,22.70
2019-05-18T19:33:24.754Z,22.60
2019-05-18T19:35:51.059Z,22.60
2019-05-18T19:38:17.492Z,22.50
2019-05-18T19:40:44.328Z,22.40
2019-05-18T19:43:10.679Z,22.40
2019-05-18T19:45:37.715Z,22.30
2019-05-18T19:48:04.163Z,22.30
2019-05-18T19:50:30.488Z,22.20
2019-05-18T19:52:56.807Z,22.10
2019-05-18T19:55:23.136Z,22.10
2019-05-18T19:57:49.465Z,22.00
2019-05-18T20:00:17.235Z,22.00
2019-05-18T20:02:43.664Z,21.90
2019-05-18T20:05:10.202Z,21.90
2019-05-18T20:07:36.636Z,21.80
2019-05-18T20:10:05.857Z,21.80
2019-05-18T20:12:32.155Z,21.80
2019-05-18T20:14:58.490Z,21.70
2019-05-18T20:17:24.822Z,21.70
2019-05-18T20:19:51.161Z,21.70
2019-05-18T20:22:17.589Z,21.60
2019-05-18T20:24:43.919Z,21.50
2019-05-18T20:27:10.194Z,21.50
2019-05-18T20:29:36.574Z,21.40
2019-05-18T20:32:02.906Z,21.40
2019-05-18T20:34:29.222Z,21.30
2019-05-18T20:36:55.567Z,21.30
2019-05-18T20:39:23.565Z,21.20
2019-05-18T20:41:49.869Z,21.20
2019-05-18T20:44:16.256Z,21.20
2019-05-18T20:46:42.786Z,21.20
2019-05-18T20:49:09.323Z,21.20
2019-05-18T20:51:35.959Z,21.20
2019-05-18T20:54:02.687Z,21.20
2019-05-18T20:56:29.501Z,21.20
2019-05-18T20:58:55.874Z,21.10
2019-05-18T21:01:22.203Z,21.10
2019-05-18T21:03:48.738Z,21.00
2019-05-18T21:06:15.682Z,21.00
2019-05-18T21:08:42.012Z,21.00
2019-05-18T21:11:08.344Z,20.90
2019-05-18T21:13:34.675Z,20.90
2019-05-18T21:16:01.009Z,20.90
2019-05-18T21:18:27.133Z,20.90
2019-05-18T21:20:53.358Z,20.80
2019-05-18T21:23:19.586Z,20.80
2019-05-18T21:25:47.306Z,20.70
2019-05-18T21:28:13.681Z,20.70
2019-05-18T21:30:39.879Z,20.60
2019-05-18T21:33:06.340Z,20.60
2019-05-18T21:35:32.793Z,20.60
2019-05-18T21:37:59.104Z,20.50
2019-05-18T21:40:26.343Z,20.50
2019-05-18T21:42:52.790Z,20.50
2019-05-18T21:45:19.528Z,20.50
2019-05-18T21:47:45.860Z,20.50
2019-05-18T21:50:12.496Z,20.40
2019-05-18T21:52:41.750Z,20.50
2019-05-18T21:55:07.308Z,20.40
2019-05-18T21:57:33.643Z,20.40
2019-05-18T22:00:00.072Z,20.40
2019-05-18T22:02:26.608Z,20.40
2019-05-18T22:04:52.937Z,20.40
2019-05-18T22:07:19.371Z,20.40
2019-05-18T22:09:45.700Z,20.40
2019-05-18T22:12:12.034Z,20.40
2019-05-18T22:14:38.364Z,20.30
2019-05-18T22:17:04.692Z,20.30
2019-05-18T22:19:31.022Z,20.30
2019-05-18T22:21:57.314Z,20.30
2019-05-18T22:24:23.681Z,20.30
2019-05-18T22:26:50.117Z,20.30
2019-05-18T22:29:16.448Z,20.20
2019-05-18T22:31:42.777Z,20.20
2019-05-18T22:34:09.025Z,20.20
2019-05-18T22:36:35.646Z,20.20
2019-05-18T22:39:02.694Z,20.20
2019-05-18T22:41:28.989Z,20.10
2019-05-18T22:43:55.554Z,20.10
2019-05-18T22:46:22.025Z,20.00
2019-05-18T22:48:48.522Z,20.00
2019-05-18T22:51:14.854Z,19.90
2019-05-18T22:53:41.378Z,19.90
2019-05-18T22:56:07.723Z,19.90
2019-05-18T22:58:33.887Z,19.80
2019-05-18T23:01:00.181Z,19.80
2019-05-18T23:03:26.422Z,19.70
2019-05-18T23:05:52.631Z,19.70
2019-05-18T23:08:18.756Z,19.70
2019-05-18T23:10:44.896Z,19.60
2019-05-18T23:13:11.042Z,19.60
2019-05-18T23:15:37.235Z,19.50
2019-05-18T23:18:03.361Z,19.40
2019-05-18T23:20:29.492Z,19.40
2019-05-18T23:22:56.155Z,19.40
2019-05-18T23:25:22.501Z,19.30
2019-05-18T23:27:48.807Z,19.20
2019-05-18T23:30:15.053Z,19.10
2019-05-18T23:32:41.554Z,19.00
2019-05-18T23:35:07.924Z,18.90
2019-05-18T23:37:34.312Z,18.90
2019-05-18T23:40:01.130Z,18.80
2019-05-18T23:42:27.488Z,18.70
2019-05-18T23:44:54.036Z,18.60
2019-05-18T23:47:20.558Z,18.60
2019-05-18T23:49:46.987Z,18.50
2019-05-18T23:52:13.833Z,18.50
2019-05-18T23:54:40.264Z,18.40
2019-05-18T23:57:06.591Z,18.40
2019-05-18T23:59:33.026Z,18.30
